sensor_id;sensor_type;location;lat;lon;timestamp;P1;durP1;ratioP1;P2;durP2;ratioP2
16113;SDS011;8161;-33.910;151.156;2022-10-31T00:01:18;2.63;;;0.68;;
16113;SDS011;8161;-33.910;151.156;2022-10-31T00:03:49;1.95;;;0.65;;
16113;SDS011;8161;-33.910;151.156;2022-10-31T00:06:17;5.28;;;1.15;;
16113;SDS011;8161;-33.910;151.156;2022-10-31T00:08:47;2.83;;;0.80;;
16113;SDS011;8161;-33.910;151.156;2022-10-31T00:11:20;4.88;;;0.70;;
16113;SDS011;8161;-33.910;151.156;2022-10-31T00:13:47;1.42;;;0.55;;
16113;SDS011;8161;-33.910;151.156;2022-10-31T00:16:16;1.30;;;0.55;;
16113;SDS011;8161;-33.910;151.156;2022-10-31T00:18:48;5.93;;;0.60;;
16113;SDS011;8161;-33.910;151.156;2022-10-31T00:21:16;1.08;;;0.50;;
16113;SDS011;8161;-33.910;151.156;2022-10-31T00:23:44;1.40;;;0.52;;
16113;SDS011;8161;-33.910;151.156;2022-10-31T00:26:11;4.15;;;0.65;;
16113;SDS011;8161;-33.910;151.156;2022-10-31T00:28:39;1.58;;;0.50;;
16113;SDS011;8161;-33.910;151.156;2022-10-31T00:31:07;3.95;;;0.73;;
16113;SDS011;8161;-33.910;151.156;2022-10-31T00:33:36;2.10;;;0.80;;
16113;SDS011;8161;-33.910;151.156;2022-10-31T00:36:05;2.72;;;0.70;;
16113;SDS011;8161;-33.910;151.156;2022-10-31T00:38:34;3.47;;;0.73;;
16113;SDS011;8161;-33.910;151.156;2022-10-31T00:41:01;4.93;;;0.70;;
16113;SDS011;8161;-33.910;151.156;2022-10-31T00:43:28;1.85;;;0.70;;
16113;SDS011;8161;-33.910;151.156;2022-10-31T00:45:56;3.25;;;0.65;;
16113;SDS011;8161;-33.910;151.156;2022-10-31T00:48:23;1.67;;;0.88;;
16113;SDS011;8161;-33.910;151.156;2022-10-31T00:50:51;2.20;;;0.95;;
16113;SDS011;8161;-33.910;151.156;2022-10-31T00:53:19;1.55;;;0.57;;
16113;SDS011;8161;-33.910;151.156;2022-10-31T00:55:46;1.65;;;0.73;;
16113;SDS011;8161;-33.910;151.156;2022-10-31T00:58:13;10.27;;;1.77;;
16113;SDS011;8161;-33.910;151.156;2022-10-31T01:00:41;7.43;;;2.03;;
16113;SDS011;8161;-33.910;151.156;2022-10-31T01:03:09;12.27;;;2.25;;
16113;SDS011;8161;-33.910;151.156;2022-10-31T01:05:36;9.10;;;1.90;;
16113;SDS011;8161;-33.910;151.156;2022-10-31T01:08:03;11.52;;;2.10;;
16113;SDS011;8161;-33.910;151.156;2022-10-31T01:10:31;8.25;;;1.80;;
16113;SDS011;8161;-33.910;151.156;2022-10-31T01:12:58;8.25;;;2.67;;
16113;SDS011;8161;-33.910;151.156;2022-10-31T01:15:25;4.30;;;1.20;;
16113;SDS011;8161;-33.910;151.156;2022-10-31T01:17:52;2.10;;;0.90;;
16113;SDS011;8161;-33.910;151.156;2022-10-31T01:20:20;5.75;;;0.70;;
16113;SDS011;8161;-33.910;151.156;2022-10-31T01:22:47;1.38;;;0.68;;
16113;SDS011;8161;-33.910;151.156;2022-10-31T01:25:14;5.00;;;0.77;;
16113;SDS011;8161;-33.910;151.156;2022-10-31T01:27:42;2.20;;;0.73;;
16113;SDS011;8161;-33.910;151.156;2022-10-31T01:30:09;1.33;;;0.50;;
16113;SDS011;8161;-33.910;151.156;2022-10-31T01:32:37;0.98;;;0.60;;
16113;SDS011;8161;-33.910;151.156;2022-10-31T01:35:04;0.43;;;0.38;;
16113;SDS011;8161;-33.910;151.156;2022-10-31T01:37:32;0.93;;;0.60;;
16113;SDS011;8161;-33.910;151.156;2022-10-31T01:39:59;4.88;;;0.77;;
16113;SDS011;8161;-33.910;151.156;2022-10-31T01:42:26;1.42;;;0.70;;
16113;SDS011;8161;-33.910;151.156;2022-10-31T01:44:56;3.92;;;0.70;;
16113;SDS011;8161;-33.910;151.156;2022-10-31T01:47:31;1.42;;;0.60;;
16113;SDS011;8161;-33.910;151.156;2022-10-31T01:50:06;3.72;;;0.65;;
16113;SDS011;8161;-33.910;151.156;2022-10-31T01:52:45;1.02;;;0.63;;
16113;SDS011;8161;-33.910;151.156;2022-10-31T01:55:18;1.58;;;0.60;;
16113;SDS011;8161;-33.910;151.156;2022-10-31T01:57:49;2.13;;;0.75;;
16113;SDS011;8161;-33.910;151.156;2022-10-31T02:00:20;1.08;;;0.65;;
16113;SDS011;8161;-33.910;151.156;2022-10-31T02:02:49;5.10;;;0.88;;
16113;SDS011;8161;-33.910;151.156;2022-10-31T02:05:18;6.75;;;1.00;;
16113;SDS011;8161;-33.910;151.156;2022-10-31T02:10:30;3.08;;;0.77;;
16113;SDS011;8161;-33.910;151.156;2022-10-31T02:13:00;6.00;;;0.50;;
16113;SDS011;8161;-33.910;151.156;2022-10-31T02:15:31;6.78;;;0.52;;
16113;SDS011;8161;-33.910;151.156;2022-10-31T02:17:59;1.02;;;0.50;;
16113;SDS011;8161;-33.910;151.156;2022-10-31T02:20:31;1.38;;;0.50;;
16113;SDS011;8161;-33.910;151.156;2022-10-31T02:23:29;2.05;;;0.50;;
16113;SDS011;8161;-33.910;151.156;2022-10-31T02:34:36;10.50;;;0.65;;
16113;SDS011;8161;-33.910;151.156;2022-10-31T02:38:06;2.20;;;0.60;;
16113;SDS011;8161;-33.910;151.156;2022-10-31T02:48:32;4.90;;;0.98;;
16113;SDS011;8161;-33.910;151.156;2022-10-31T02:51:03;4.80;;;0.70;;
16113;SDS011;8161;-33.910;151.156;2022-10-31T02:53:35;0.88;;;0.43;;
16113;SDS011;8161;-33.910;151.156;2022-10-31T03:09:40;1.90;;;0.60;;
16113;SDS011;8161;-33.910;151.156;2022-10-31T03:17:37;1.88;;;0.70;;
16113;SDS011;8161;-33.910;151.156;2022-10-31T03:20:17;1.02;;;0.60;;
16113;SDS011;8161;-33.910;151.156;2022-10-31T03:22:50;1.17;;;0.70;;
16113;SDS011;8161;-33.910;151.156;2022-10-31T03:25:18;1.30;;;0.60;;
16113;SDS011;8161;-33.910;151.156;2022-10-31T03:27:45;1.08;;;0.75;;
16113;SDS011;8161;-33.910;151.156;2022-10-31T03:30:14;0.80;;;0.57;;
16113;SDS011;8161;-33.910;151.156;2022-10-31T03:32:52;0.82;;;0.60;;
16113;SDS011;8161;-33.910;151.156;2022-10-31T03:35:23;1.05;;;0.60;;
16113;SDS011;8161;-33.910;151.156;2022-10-31T03:37:52;3.30;;;0.57;;
16113;SDS011;8161;-33.910;151.156;2022-10-31T03:40:21;3.47;;;1.02;;
16113;SDS011;8161;-33.910;151.156;2022-10-31T03:42:52;1.50;;;0.75;;
16113;SDS011;8161;-33.910;151.156;2022-10-31T03:45:25;1.95;;;0.75;;
16113;SDS011;8161;-33.910;151.156;2022-10-31T03:47:55;2.95;;;0.80;;
16113;SDS011;8161;-33.910;151.156;2022-10-31T03:50:25;2.15;;;0.70;;
16113;SDS011;8161;-33.910;151.156;2022-10-31T03:53:09;4.10;;;0.70;;
16113;SDS011;8161;-33.910;151.156;2022-10-31T03:55:52;1.58;;;0.60;;
16113;SDS011;8161;-33.910;151.156;2022-10-31T03:58:36;0.68;;;0.65;;
16113;SDS011;8161;-33.910;151.156;2022-10-31T04:01:08;1.52;;;0.70;;
16113;SDS011;8161;-33.910;151.156;2022-10-31T04:03:40;1.83;;;0.70;;
16113;SDS011;8161;-33.910;151.156;2022-10-31T04:06:09;0.47;;;0.40;;
16113;SDS011;8161;-33.910;151.156;2022-10-31T04:08:51;0.35;;;0.35;;
16113;SDS011;8161;-33.910;151.156;2022-10-31T04:11:25;0.73;;;0.40;;
16113;SDS011;8161;-33.910;151.156;2022-10-31T04:13:56;0.95;;;0.50;;
16113;SDS011;8161;-33.910;151.156;2022-10-31T04:16:26;0.43;;;0.40;;
16113;SDS011;8161;-33.910;151.156;2022-10-31T04:18:54;0.60;;;0.50;;
16113;SDS011;8161;-33.910;151.156;2022-10-31T04:21:26;1.27;;;0.45;;
16113;SDS011;8161;-33.910;151.156;2022-10-31T04:23:55;0.40;;;0.30;;
16113;SDS011;8161;-33.910;151.156;2022-10-31T04:26:22;0.32;;;0.30;;
16113;SDS011;8161;-33.910;151.156;2022-10-31T04:28:50;1.35;;;0.40;;
16113;SDS011;8161;-33.910;151.156;2022-10-31T04:31:18;1.63;;;0.40;;
16113;SDS011;8161;-33.910;151.156;2022-10-31T04:33:45;0.43;;;0.30;;
16113;SDS011;8161;-33.910;151.156;2022-10-31T04:36:12;0.52;;;0.38;;
16113;SDS011;8161;-33.910;151.156;2022-10-31T04:38:40;0.68;;;0.57;;
16113;SDS011;8161;-33.910;151.156;2022-10-31T04:41:07;2.47;;;0.50;;
16113;SDS011;8161;-33.910;151.156;2022-10-31T04:43:35;0.88;;;0.40;;
16113;SDS011;8161;-33.910;151.156;2022-10-31T04:46:02;1.50;;;0.40;;
16113;SDS011;8161;-33.910;151.156;2022-10-31T04:48:29;1.55;;;0.40;;
16113;SDS011;8161;-33.910;151.156;2022-10-31T04:51:00;5.25;;;0.60;;
16113;SDS011;8161;-33.910;151.156;2022-10-31T04:53:28;2.42;;;0.50;;
16113;SDS011;8161;-33.910;151.156;2022-10-31T04:55:57;1.30;;;0.75;;
16113;SDS011;8161;-33.910;151.156;2022-10-31T04:58:26;1.92;;;0.82;;
16113;SDS011;8161;-33.910;151.156;2022-10-31T05:00:54;1.00;;;0.60;;
16113;SDS011;8161;-33.910;151.156;2022-10-31T05:03:22;0.73;;;0.50;;
16113;SDS011;8161;-33.910;151.156;2022-10-31T05:05:50;0.82;;;0.75;;
16113;SDS011;8161;-33.910;151.156;2022-10-31T05:08:17;1.00;;;0.60;;
16113;SDS011;8161;-33.910;151.156;2022-10-31T05:10:44;0.85;;;0.60;;
16113;SDS011;8161;-33.910;151.156;2022-10-31T05:13:11;1.27;;;0.63;;
16113;SDS011;8161;-33.910;151.156;2022-10-31T05:15:40;2.20;;;0.40;;
16113;SDS011;8161;-33.910;151.156;2022-10-31T05:18:07;1.00;;;0.40;;
16113;SDS011;8161;-33.910;151.156;2022-10-31T05:20:34;8.45;;;0.77;;
16113;SDS011;8161;-33.910;151.156;2022-10-31T05:23:05;4.88;;;0.60;;
16113;SDS011;8161;-33.910;151.156;2022-10-31T05:25:32;0.43;;;0.40;;
16113;SDS011;8161;-33.910;151.156;2022-10-31T05:27:59;1.42;;;0.40;;
16113;SDS011;8161;-33.910;151.156;2022-10-31T05:30:27;0.45;;;0.40;;
16113;SDS011;8161;-33.910;151.156;2022-10-31T05:32:58;1.95;;;0.55;;
16113;SDS011;8161;-33.910;151.156;2022-10-31T05:35:26;2.70;;;0.25;;
16113;SDS011;8161;-33.910;151.156;2022-10-31T05:37:55;0.40;;;0.32;;
16113;SDS011;8161;-33.910;151.156;2022-10-31T05:40:24;2.20;;;0.90;;
16113;SDS011;8161;-33.910;151.156;2022-10-31T05:42:52;0.45;;;0.40;;
16113;SDS011;8161;-33.910;151.156;2022-10-31T05:45:21;0.88;;;0.50;;
16113;SDS011;8161;-33.910;151.156;2022-10-31T05:47:55;0.65;;;0.50;;
16113;SDS011;8161;-33.910;151.156;2022-10-31T05:50:24;1.05;;;0.60;;
16113;SDS011;8161;-33.910;151.156;2022-10-31T05:52:57;0.95;;;0.80;;
16113;SDS011;8161;-33.910;151.156;2022-10-31T05:55:29;2.47;;;0.52;;
16113;SDS011;8161;-33.910;151.156;2022-10-31T05:57:57;1.40;;;0.60;;
16113;SDS011;8161;-33.910;151.156;2022-10-31T06:00:25;0.70;;;0.50;;
16113;SDS011;8161;-33.910;151.156;2022-10-31T06:03:00;2.58;;;0.45;;
16113;SDS011;8161;-33.910;151.156;2022-10-31T06:05:29;1.20;;;0.50;;
16113;SDS011;8161;-33.910;151.156;2022-10-31T06:07:56;0.80;;;0.40;;
16113;SDS011;8161;-33.910;151.156;2022-10-31T06:10:24;0.95;;;0.60;;
16113;SDS011;8161;-33.910;151.156;2022-10-31T06:12:52;1.05;;;0.50;;
16113;SDS011;8161;-33.910;151.156;2022-10-31T06:15:20;0.60;;;0.47;;
16113;SDS011;8161;-33.910;151.156;2022-10-31T06:17:47;1.98;;;0.47;;
16113;SDS011;8161;-33.910;151.156;2022-10-31T06:20:24;2.78;;;0.40;;
16113;SDS011;8161;-33.910;151.156;2022-10-31T06:22:52;0.77;;;0.52;;
16113;SDS011;8161;-33.910;151.156;2022-10-31T06:25:19;0.90;;;0.70;;
16113;SDS011;8161;-33.910;151.156;2022-10-31T06:27:46;3.35;;;0.63;;
16113;SDS011;8161;-33.910;151.156;2022-10-31T06:30:14;1.48;;;0.60;;
16113;SDS011;8161;-33.910;151.156;2022-10-31T06:32:42;0.73;;;0.43;;
16113;SDS011;8161;-33.910;151.156;2022-10-31T06:35:09;0.65;;;0.60;;
16113;SDS011;8161;-33.910;151.156;2022-10-31T06:37:37;0.88;;;0.50;;
16113;SDS011;8161;-33.910;151.156;2022-10-31T06:40:04;0.57;;;0.50;;
16113;SDS011;8161;-33.910;151.156;2022-10-31T06:42:32;0.60;;;0.55;;
16113;SDS011;8161;-33.910;151.156;2022-10-31T06:44:59;0.50;;;0.50;;
16113;SDS011;8161;-33.910;151.156;2022-10-31T06:47:26;0.70;;;0.57;;
16113;SDS011;8161;-33.910;151.156;2022-10-31T06:49:53;0.70;;;0.70;;
16113;SDS011;8161;-33.910;151.156;2022-10-31T06:52:21;0.60;;;0.50;;
16113;SDS011;8161;-33.910;151.156;2022-10-31T06:54:49;0.98;;;0.68;;
16113;SDS011;8161;-33.910;151.156;2022-10-31T06:57:16;1.02;;;0.60;;
16113;SDS011;8161;-33.910;151.156;2022-10-31T06:59:43;1.25;;;0.50;;
16113;SDS011;8161;-33.910;151.156;2022-10-31T07:02:11;0.82;;;0.60;;
16113;SDS011;8161;-33.910;151.156;2022-10-31T07:04:38;3.08;;;0.60;;
16113;SDS011;8161;-33.910;151.156;2022-10-31T07:07:07;1.95;;;0.60;;
16113;SDS011;8161;-33.910;151.156;2022-10-31T07:09:34;1.60;;;0.77;;
16113;SDS011;8161;-33.910;151.156;2022-10-31T07:12:02;0.50;;;0.40;;
16113;SDS011;8161;-33.910;151.156;2022-10-31T07:14:29;4.03;;;0.77;;
16113;SDS011;8161;-33.910;151.156;2022-10-31T07:16:56;3.67;;;0.70;;
16113;SDS011;8161;-33.910;151.156;2022-10-31T07:19:27;4.45;;;0.88;;
16113;SDS011;8161;-33.910;151.156;2022-10-31T07:21:54;5.82;;;0.93;;
16113;SDS011;8161;-33.910;151.156;2022-10-31T07:24:22;1.48;;;0.70;;
16113;SDS011;8161;-33.910;151.156;2022-10-31T07:26:49;1.23;;;0.80;;
16113;SDS011;8161;-33.910;151.156;2022-10-31T07:29:17;0.73;;;0.65;;
16113;SDS011;8161;-33.910;151.156;2022-10-31T07:31:45;3.40;;;0.57;;
16113;SDS011;8161;-33.910;151.156;2022-10-31T07:34:12;1.75;;;0.50;;
16113;SDS011;8161;-33.910;151.156;2022-10-31T07:36:39;6.18;;;1.25;;
16113;SDS011;8161;-33.910;151.156;2022-10-31T07:39:07;4.57;;;0.90;;
16113;SDS011;8161;-33.910;151.156;2022-10-31T07:41:34;1.45;;;0.90;;
16113;SDS011;8161;-33.910;151.156;2022-10-31T07:44:01;1.13;;;0.80;;
16113;SDS011;8161;-33.910;151.156;2022-10-31T07:46:29;1.42;;;0.70;;
16113;SDS011;8161;-33.910;151.156;2022-10-31T07:48:56;1.00;;;0.90;;
16113;SDS011;8161;-33.910;151.156;2022-10-31T07:51:23;1.48;;;0.70;;
16113;SDS011;8161;-33.910;151.156;2022-10-31T07:53:50;3.00;;;0.70;;
16113;SDS011;8161;-33.910;151.156;2022-10-31T07:56:18;1.20;;;0.68;;
16113;SDS011;8161;-33.910;151.156;2022-10-31T07:58:45;0.80;;;0.60;;
16113;SDS011;8161;-33.910;151.156;2022-10-31T08:01:12;1.33;;;0.70;;
16113;SDS011;8161;-33.910;151.156;2022-10-31T08:03:40;1.27;;;0.65;;
16113;SDS011;8161;-33.910;151.156;2022-10-31T08:06:07;0.73;;;0.70;;
16113;SDS011;8161;-33.910;151.156;2022-10-31T08:08:35;1.23;;;0.73;;
16113;SDS011;8161;-33.910;151.156;2022-10-31T08:11:03;0.88;;;0.70;;
16113;SDS011;8161;-33.910;151.156;2022-10-31T08:13:31;2.95;;;0.80;;
16113;SDS011;8161;-33.910;151.156;2022-10-31T08:15:58;2.95;;;0.80;;
16113;SDS011;8161;-33.910;151.156;2022-10-31T08:18:29;2.00;;;0.77;;
16113;SDS011;8161;-33.910;151.156;2022-10-31T08:20:57;1.05;;;0.80;;
16113;SDS011;8161;-33.910;151.156;2022-10-31T08:23:24;2.30;;;1.00;;
16113;SDS011;8161;-33.910;151.156;2022-10-31T08:25:51;1.50;;;0.70;;
16113;SDS011;8161;-33.910;151.156;2022-10-31T08:28:18;1.48;;;0.70;;
16113;SDS011;8161;-33.910;151.156;2022-10-31T08:30:46;1.95;;;0.90;;
16113;SDS011;8161;-33.910;151.156;2022-10-31T08:33:14;1.42;;;0.70;;
16113;SDS011;8161;-33.910;151.156;2022-10-31T08:35:43;2.83;;;0.60;;
16113;SDS011;8161;-33.910;151.156;2022-10-31T08:38:11;2.30;;;1.00;;
16113;SDS011;8161;-33.910;151.156;2022-10-31T08:40:39;2.08;;;0.70;;
16113;SDS011;8161;-33.910;151.156;2022-10-31T08:43:11;1.02;;;0.73;;
16113;SDS011;8161;-33.910;151.156;2022-10-31T08:45:39;1.40;;;0.77;;
16113;SDS011;8161;-33.910;151.156;2022-10-31T08:48:09;3.90;;;0.70;;
16113;SDS011;8161;-33.910;151.156;2022-10-31T08:50:38;2.13;;;0.70;;
16113;SDS011;8161;-33.910;151.156;2022-10-31T08:53:07;1.38;;;0.60;;
16113;SDS011;8161;-33.910;151.156;2022-10-31T08:55:37;1.27;;;0.68;;
16113;SDS011;8161;-33.910;151.156;2022-10-31T08:58:06;0.70;;;0.70;;
16113;SDS011;8161;-33.910;151.156;2022-10-31T09:00:38;1.10;;;0.70;;
16113;SDS011;8161;-33.910;151.156;2022-10-31T09:03:08;3.45;;;0.90;;
16113;SDS011;8161;-33.910;151.156;2022-10-31T09:05:40;0.90;;;0.80;;
16113;SDS011;8161;-33.910;151.156;2022-10-31T09:08:08;1.13;;;0.60;;
16113;SDS011;8161;-33.910;151.156;2022-10-31T09:10:35;3.40;;;0.73;;
16113;SDS011;8161;-33.910;151.156;2022-10-31T09:13:08;3.58;;;0.80;;
16113;SDS011;8161;-33.910;151.156;2022-10-31T09:15:41;1.23;;;0.70;;
16113;SDS011;8161;-33.910;151.156;2022-10-31T09:18:09;0.85;;;0.60;;
16113;SDS011;8161;-33.910;151.156;2022-10-31T09:20:38;2.38;;;0.60;;
16113;SDS011;8161;-33.910;151.156;2022-10-31T09:23:11;1.52;;;0.63;;
16113;SDS011;8161;-33.910;151.156;2022-10-31T09:25:46;1.25;;;0.70;;
16113;SDS011;8161;-33.910;151.156;2022-10-31T09:28:15;7.28;;;0.98;;
16113;SDS011;8161;-33.910;151.156;2022-10-31T09:30:45;2.15;;;0.90;;
16113;SDS011;8161;-33.910;151.156;2022-10-31T09:33:16;1.88;;;0.77;;
16113;SDS011;8161;-33.910;151.156;2022-10-31T09:35:45;1.05;;;0.70;;
16113;SDS011;8161;-33.910;151.156;2022-10-31T09:38:13;0.85;;;0.65;;
16113;SDS011;8161;-33.910;151.156;2022-10-31T09:48:49;0.50;;;0.50;;
16113;SDS011;8161;-33.910;151.156;2022-10-31T09:51:25;0.98;;;0.60;;
16113;SDS011;8161;-33.910;151.156;2022-10-31T09:54:14;1.90;;;0.88;;
16113;SDS011;8161;-33.910;151.156;2022-10-31T09:56:43;1.42;;;0.80;;
16113;SDS011;8161;-33.910;151.156;2022-10-31T10:05:03;1.98;;;0.50;;
16113;SDS011;8161;-33.910;151.156;2022-10-31T10:07:40;2.50;;;0.73;;
16113;SDS011;8161;-33.910;151.156;2022-10-31T10:10:24;0.70;;;0.50;;
16113;SDS011;8161;-33.910;151.156;2022-10-31T10:13:06;0.70;;;0.50;;
16113;SDS011;8161;-33.910;151.156;2022-10-31T10:15:55;0.85;;;0.50;;
16113;SDS011;8161;-33.910;151.156;2022-10-31T10:27:05;0.50;;;0.50;;
16113;SDS011;8161;-33.910;151.156;2022-10-31T10:29:53;0.60;;;0.55;;
16113;SDS011;8161;-33.910;151.156;2022-10-31T10:32:29;1.02;;;0.60;;
16113;SDS011;8161;-33.910;151.156;2022-10-31T10:35:13;1.15;;;0.68;;
16113;SDS011;8161;-33.910;151.156;2022-10-31T10:38:34;1.00;;;0.63;;
16113;SDS011;8161;-33.910;151.156;2022-10-31T10:41:10;0.93;;;0.70;;
16113;SDS011;8161;-33.910;151.156;2022-10-31T10:47:04;1.20;;;0.70;;
16113;SDS011;8161;-33.910;151.156;2022-10-31T10:49:52;1.17;;;0.82;;
16113;SDS011;8161;-33.910;151.156;2022-10-31T10:55:08;1.05;;;0.70;;
16113;SDS011;8161;-33.910;151.156;2022-10-31T11:00:51;3.58;;;0.85;;
16113;SDS011;8161;-33.910;151.156;2022-10-31T11:03:19;1.70;;;0.70;;
16113;SDS011;8161;-33.910;151.156;2022-10-31T11:05:56;1.23;;;0.70;;
16113;SDS011;8161;-33.910;151.156;2022-10-31T11:08:30;2.63;;;0.90;;
16113;SDS011;8161;-33.910;151.156;2022-10-31T11:11:08;3.13;;;1.30;;
16113;SDS011;8161;-33.910;151.156;2022-10-31T11:13:37;4.60;;;1.40;;
16113;SDS011;8161;-33.910;151.156;2022-10-31T11:16:13;1.67;;;1.00;;
16113;SDS011;8161;-33.910;151.156;2022-10-31T11:18:53;2.47;;;0.80;;
16113;SDS011;8161;-33.910;151.156;2022-10-31T11:21:31;2.97;;;0.95;;
16113;SDS011;8161;-33.910;151.156;2022-10-31T11:26:40;2.95;;;0.88;;
16113;SDS011;8161;-33.910;151.156;2022-10-31T11:29:16;2.22;;;0.98;;
16113;SDS011;8161;-33.910;151.156;2022-10-31T11:31:51;1.02;;;0.73;;
16113;SDS011;8161;-33.910;151.156;2022-10-31T11:34:27;1.73;;;0.80;;
16113;SDS011;8161;-33.910;151.156;2022-10-31T11:37:02;0.77;;;0.70;;
16113;SDS011;8161;-33.910;151.156;2022-10-31T11:39:31;1.65;;;0.70;;
16113;SDS011;8161;-33.910;151.156;2022-10-31T11:41:59;1.20;;;0.80;;
16113;SDS011;8161;-33.910;151.156;2022-10-31T11:44:28;0.60;;;0.50;;
16113;SDS011;8161;-33.910;151.156;2022-10-31T11:46:58;1.00;;;0.80;;
16113;SDS011;8161;-33.910;151.156;2022-10-31T11:49:30;1.10;;;0.60;;
16113;SDS011;8161;-33.910;151.156;2022-10-31T11:52:47;2.03;;;1.10;;
16113;SDS011;8161;-33.910;151.156;2022-10-31T11:55:01;3.60;;;1.00;;
16113;SDS011;8161;-33.910;151.156;2022-10-31T12:00:27;1.45;;;0.73;;
16113;SDS011;8161;-33.910;151.156;2022-10-31T12:08:32;0.73;;;0.68;;
16113;SDS011;8161;-33.910;151.156;2022-10-31T12:11:08;1.88;;;0.80;;
16113;SDS011;8161;-33.910;151.156;2022-10-31T12:17:05;1.17;;;0.80;;
16113;SDS011;8161;-33.910;151.156;2022-10-31T12:35:35;2.70;;;0.80;;
16113;SDS011;8161;-33.910;151.156;2022-10-31T12:41:17;1.67;;;0.80;;
16113;SDS011;8161;-33.910;151.156;2022-10-31T12:44:05;1.27;;;0.70;;
16113;SDS011;8161;-33.910;151.156;2022-10-31T12:47:04;1.83;;;1.00;;
16113;SDS011;8161;-33.910;151.156;2022-10-31T12:58:22;2.55;;;1.70;;
16113;SDS011;8161;-33.910;151.156;2022-10-31T13:01:15;3.42;;;0.98;;
16113;SDS011;8161;-33.910;151.156;2022-10-31T13:03:55;1.67;;;0.80;;
16113;SDS011;8161;-33.910;151.156;2022-10-31T13:06:42;5.70;;;0.93;;
16113;SDS011;8161;-33.910;151.156;2022-10-31T13:09:47;1.17;;;0.75;;
16113;SDS011;8161;-33.910;151.156;2022-10-31T13:12:32;1.15;;;0.80;;
16113;SDS011;8161;-33.910;151.156;2022-10-31T13:15:05;3.50;;;1.13;;
16113;SDS011;8161;-33.910;151.156;2022-10-31T13:17:53;1.48;;;0.93;;
16113;SDS011;8161;-33.910;151.156;2022-10-31T13:20:27;2.25;;;1.13;;
16113;SDS011;8161;-33.910;151.156;2022-10-31T13:23:05;2.90;;;0.80;;
16113;SDS011;8161;-33.910;151.156;2022-10-31T13:25:42;2.13;;;0.90;;
16113;SDS011;8161;-33.910;151.156;2022-10-31T13:31:12;3.17;;;1.00;;
16113;SDS011;8161;-33.910;151.156;2022-10-31T13:33:59;1.65;;;0.90;;
16113;SDS011;8161;-33.910;151.156;2022-10-31T13:36:38;1.48;;;0.93;;
16113;SDS011;8161;-33.910;151.156;2022-10-31T13:39:22;1.75;;;0.90;;
16113;SDS011;8161;-33.910;151.156;2022-10-31T13:43:02;1.23;;;0.80;;
16113;SDS011;8161;-33.910;151.156;2022-10-31T13:45:17;2.20;;;0.80;;
16113;SDS011;8161;-33.910;151.156;2022-10-31T13:47:56;1.15;;;0.75;;
16113;SDS011;8161;-33.910;151.156;2022-10-31T13:51:05;1.50;;;0.90;;
16113;SDS011;8161;-33.910;151.156;2022-10-31T13:53:37;2.20;;;0.75;;
16113;SDS011;8161;-33.910;151.156;2022-10-31T13:56:29;1.73;;;0.90;;
16113;SDS011;8161;-33.910;151.156;2022-10-31T14:01:51;1.20;;;0.80;;
16113;SDS011;8161;-33.910;151.156;2022-10-31T14:04:47;1.83;;;0.85;;
16113;SDS011;8161;-33.910;151.156;2022-10-31T14:07:22;0.90;;;0.82;;
16113;SDS011;8161;-33.910;151.156;2022-10-31T14:12:42;2.90;;;0.80;;
16113;SDS011;8161;-33.910;151.156;2022-10-31T14:17:51;0.80;;;0.75;;
16113;SDS011;8161;-33.910;151.156;2022-10-31T14:20:30;2.08;;;0.88;;
16113;SDS011;8161;-33.910;151.156;2022-10-31T14:23:11;1.08;;;0.73;;
16113;SDS011;8161;-33.910;151.156;2022-10-31T14:26:06;0.98;;;0.77;;
16113;SDS011;8161;-33.910;151.156;2022-10-31T14:28:43;0.85;;;0.77;;
16113;SDS011;8161;-33.910;151.156;2022-10-31T14:39:52;1.13;;;0.70;;
16113;SDS011;8161;-33.910;151.156;2022-10-31T14:42:29;2.85;;;0.90;;
16113;SDS011;8161;-33.910;151.156;2022-10-31T14:53:14;0.77;;;0.68;;
16113;SDS011;8161;-33.910;151.156;2022-10-31T14:55:48;0.98;;;0.55;;
16113;SDS011;8161;-33.910;151.156;2022-10-31T14:58:22;2.50;;;0.57;;
16113;SDS011;8161;-33.910;151.156;2022-10-31T15:04:30;1.45;;;0.50;;
16113;SDS011;8161;-33.910;151.156;2022-10-31T15:06:54;0.60;;;0.55;;
16113;SDS011;8161;-33.910;151.156;2022-10-31T15:09:37;1.08;;;0.70;;
16113;SDS011;8161;-33.910;151.156;2022-10-31T15:14:51;1.20;;;0.70;;
16113;SDS011;8161;-33.910;151.156;2022-10-31T15:17:20;1.02;;;0.68;;
16113;SDS011;8161;-33.910;151.156;2022-10-31T15:20:02;0.90;;;0.60;;
16113;SDS011;8161;-33.910;151.156;2022-10-31T15:22:32;1.25;;;0.50;;
16113;SDS011;8161;-33.910;151.156;2022-10-31T15:25:05;3.17;;;0.80;;
16113;SDS011;8161;-33.910;151.156;2022-10-31T15:27:47;1.52;;;0.65;;
16113;SDS011;8161;-33.910;151.156;2022-10-31T15:30:24;1.45;;;0.80;;
16113;SDS011;8161;-33.910;151.156;2022-10-31T15:32:59;0.70;;;0.52;;
16113;SDS011;8161;-33.910;151.156;2022-10-31T15:35:29;3.17;;;1.00;;
16113;SDS011;8161;-33.910;151.156;2022-10-31T15:38:01;1.17;;;0.70;;
16113;SDS011;8161;-33.910;151.156;2022-10-31T15:40:30;3.22;;;0.80;;
16113;SDS011;8161;-33.910;151.156;2022-10-31T15:43:03;2.25;;;0.70;;
16113;SDS011;8161;-33.910;151.156;2022-10-31T15:45:39;2.42;;;0.60;;
16113;SDS011;8161;-33.910;151.156;2022-10-31T15:48:22;3.47;;;0.70;;
16113;SDS011;8161;-33.910;151.156;2022-10-31T15:50:55;1.00;;;0.68;;
16113;SDS011;8161;-33.910;151.156;2022-10-31T15:53:37;0.80;;;0.68;;
16113;SDS011;8161;-33.910;151.156;2022-10-31T15:56:19;2.40;;;0.50;;
16113;SDS011;8161;-33.910;151.156;2022-10-31T15:58:55;1.52;;;0.70;;
16113;SDS011;8161;-33.910;151.156;2022-10-31T16:01:32;2.75;;;0.60;;
16113;SDS011;8161;-33.910;151.156;2022-10-31T16:09:29;2.03;;;0.60;;
16113;SDS011;8161;-33.910;151.156;2022-10-31T16:11:56;1.42;;;0.60;;
16113;SDS011;8161;-33.910;151.156;2022-10-31T16:14:28;2.08;;;0.47;;
16113;SDS011;8161;-33.910;151.156;2022-10-31T16:17:02;0.65;;;0.47;;
16113;SDS011;8161;-33.910;151.156;2022-10-31T16:19:33;2.42;;;0.80;;
16113;SDS011;8161;-33.910;151.156;2022-10-31T16:22:04;1.65;;;0.60;;
16113;SDS011;8161;-33.910;151.156;2022-10-31T16:27:21;2.25;;;0.70;;
16113;SDS011;8161;-33.910;151.156;2022-10-31T16:29:57;1.67;;;0.65;;
16113;SDS011;8161;-33.910;151.156;2022-10-31T16:35:24;1.23;;;0.60;;
16113;SDS011;8161;-33.910;151.156;2022-10-31T16:37:54;0.82;;;0.60;;
16113;SDS011;8161;-33.910;151.156;2022-10-31T16:40:21;1.20;;;0.60;;
16113;SDS011;8161;-33.910;151.156;2022-10-31T16:42:49;1.90;;;0.70;;
16113;SDS011;8161;-33.910;151.156;2022-10-31T16:47:49;1.90;;;0.88;;
16113;SDS011;8161;-33.910;151.156;2022-10-31T16:50:21;2.40;;;0.70;;
16113;SDS011;8161;-33.910;151.156;2022-10-31T16:52:50;0.70;;;0.50;;
16113;SDS011;8161;-33.910;151.156;2022-10-31T16:55:18;1.33;;;0.50;;
16113;SDS011;8161;-33.910;151.156;2022-10-31T16:57:50;4.20;;;0.90;;
16113;SDS011;8161;-33.910;151.156;2022-10-31T17:00:20;0.65;;;0.52;;
16113;SDS011;8161;-33.910;151.156;2022-10-31T17:02:51;2.08;;;0.68;;
16113;SDS011;8161;-33.910;151.156;2022-10-31T17:05:23;1.92;;;1.08;;
16113;SDS011;8161;-33.910;151.156;2022-10-31T17:07:58;2.47;;;0.70;;
16113;SDS011;8161;-33.910;151.156;2022-10-31T17:10:26;1.70;;;0.50;;
16113;SDS011;8161;-33.910;151.156;2022-10-31T17:12:53;1.42;;;0.63;;
16113;SDS011;8161;-33.910;151.156;2022-10-31T17:15:23;3.13;;;0.50;;
16113;SDS011;8161;-33.910;151.156;2022-10-31T17:17:52;0.73;;;0.60;;
16113;SDS011;8161;-33.910;151.156;2022-10-31T17:22:55;1.35;;;0.60;;
16113;SDS011;8161;-33.910;151.156;2022-10-31T17:25:24;3.08;;;0.80;;
16113;SDS011;8161;-33.910;151.156;2022-10-31T17:27:53;1.58;;;1.15;;
16113;SDS011;8161;-33.910;151.156;2022-10-31T17:30:21;2.13;;;0.75;;
16113;SDS011;8161;-33.910;151.156;2022-10-31T17:32:49;1.52;;;0.70;;